Time;durP1;ratioP1;P1;durP2;ratioP2;P2;SDS_P1;SDS_P2;PMS_P1;PMS_P2;Temp;Humidity;BMP_temperature;BMP_pressure;BME280_temperature;BME280_humidity;BME280_pressure;Samples;Min_cycle;Max_cycle;Signal;HPM_P1;HPM_P2
2022/05/20 00:01:51;;;;;;;12.85;9.00;;;14.70;99.90;;;;;;4977423;28;20463;-83
2022/05/20 00:04:16;;;;;;;12.82;11.48;;;14.70;99.90;;;;;;4961428;28;20126;-83
2022/05/20 00:06:42;;;;;;;13.65;10.93;;;14.70;99.90;;;;;;4977351;28;20093;-83
2022/05/20 00:09:08;;;;;;;15.57;10.15;;;14.80;99.90;;;;;;4972414;28;20065;-82
2022/05/20 00:11:34;;;;;;;13.50;10.70;;;14.80;99.90;;;;;;4974275;28;20038;-83
2022/05/20 00:14:01;;;;;;;13.75;11.43;;;14.70;99.90;;;;;;4977456;28;20130;-82
2022/05/20 00:16:29;;;;;;;14.43;8.52;;;14.80;99.90;;;;;;4961342;28;20030;-83
2022/05/20 00:18:55;;;;;;;11.43;10.23;;;14.80;99.90;;;;;;4976923;28;20046;-82
2022/05/20 00:21:20;;;;;;;12.88;10.18;;;14.80;99.90;;;;;;4961280;28;20092;-83
2022/05/20 00:23:46;;;;;;;12.90;9.55;;;14.80;99.90;;;;;;4976993;28;20561;-82
2022/05/20 00:26:11;;;;;;;13.68;11.52;;;14.80;99.90;;;;;;4976757;28;20500;-82
2022/05/20 00:28:37;;;;;;;15.18;10.80;;;14.90;99.90;;;;;;4976539;28;20043;-83
2022/05/20 00:31:06;;;;;;;13.18;10.55;;;14.90;99.90;;;;;;4977135;28;20076;-83
2022/05/20 00:33:33;;;;;;;15.27;10.85;;;14.90;99.90;;;;;;4976836;28;20042;-82
2022/05/20 00:35:59;;;;;;;13.43;8.90;;;14.90;99.90;;;;;;4976823;28;20048;-83
2022/05/20 00:38:26;;;;;;;13.75;9.63;;;14.90;99.90;;;;;;4976589;28;20471;-82
2022/05/20 00:40:54;;;;;;;12.55;9.50;;;14.90;99.90;;;;;;4976789;28;20396;-83
2022/05/20 00:43:26;;;;;;;13.20;10.65;;;14.90;99.90;;;;;;4976429;28;20137;-83
2022/05/20 00:45:57;;;;;;;14.70;7.37;;;15.00;99.90;;;;;;4960464;28;20042;-83
2022/05/20 00:48:24;;;;;;;12.80;9.43;;;14.90;99.90;;;;;;4993595;28;20285;-82
2022/05/20 00:51:11;;;;;;;11.82;9.57;;;14.90;99.90;;;;;;4960532;28;20042;-83
2022/05/20 00:54:01;;;;;;;13.63;7.43;;;14.90;99.90;;;;;;4976721;28;20053;-83
2022/05/20 00:56:34;;;;;;;11.80;8.88;;;14.80;99.90;;;;;;4960833;28;20081;-82
2022/05/20 00:59:00;;;;;;;11.02;6.82;;;14.80;99.90;;;;;;4976242;28;20136;-83
2022/05/20 01:01:28;;;;;;;12.73;6.95;;;14.80;99.90;;;;;;4976291;28;20515;-83
2022/05/20 01:03:56;;;;;;;10.65;7.10;;;14.70;99.90;;;;;;4976022;28;20041;-83
2022/05/20 01:06:22;;;;;;;12.85;7.20;;;14.70;99.90;;;;;;4976194;28;20038;-83
2022/05/20 01:08:47;;;;;;;11.88;8.98;;;14.70;99.90;;;;;;4958936;28;20411;-83
2022/05/20 01:11:13;;;;;;;14.02;9.48;;;14.70;99.90;;;;;;4976479;28;20038;-83
2022/05/20 01:13:39;;;;;;;12.80;7.22;;;14.80;99.90;;;;;;4959903;28;20512;-83
2022/05/20 01:16:10;;;;;;;13.07;8.57;;;14.70;99.90;;;;;;4975977;28;20042;-83
2022/05/20 01:18:38;;;;;;;13.95;8.27;;;14.70;99.90;;;;;;4959530;28;20078;-83
2022/05/20 01:21:05;;;;;;;15.75;9.55;;;14.70;99.90;;;;;;4976224;28;20042;-83
2022/05/20 01:23:33;;;;;;;13.75;9.18;;;14.70;99.90;;;;;;4959791;28;20460;-83
2022/05/20 01:25:59;;;;;;;13.90;10.52;;;14.80;99.90;;;;;;4975953;28;20407;-82
2022/05/20 01:28:28;;;;;;;13.70;9.77;;;14.80;99.90;;;;;;4975333;28;20518;-83
2022/05/20 01:31:00;;;;;;;13.18;10.15;;;14.80;99.90;;;;;;4975711;28;20069;-83
2022/05/20 01:33:33;;;;;;;13.73;7.85;;;14.80;99.90;;;;;;4975850;28;20042;-82
2022/05/20 01:36:01;;;;;;;14.85;10.75;;;14.70;99.90;;;;;;4975936;28;20053;-82
2022/05/20 01:38:27;;;;;;;13.20;8.55;;;14.70;99.90;;;;;;4959149;28;20097;-82
2022/05/20 01:41:06;;;;;;;15.52;10.95;;;14.70;99.90;;;;;;4975630;28;20043;-82
2022/05/20 01:43:58;;;;;;;18.10;11.73;;;14.60;99.90;;;;;;4975784;28;20400;-83
2022/05/20 01:46:45;;;;;;;15.15;11.65;;;14.70;99.90;;;;;;4975577;28;20053;-82
2022/05/20 01:49:32;;;;;;;13.73;9.52;;;14.70;99.90;;;;;;4975007;28;20042;-83
2022/05/20 01:52:20;;;;;;;16.52;12.73;;;14.60;99.90;;;;;;4975447;28;20046;-83
2022/05/20 01:54:57;;;;;;;15.10;9.60;;;14.60;99.90;;;;;;4975143;28;20046;-83
2022/05/20 01:57:29;;;;;;;15.10;9.93;;;14.60;99.90;;;;;;4975501;28;20072;-83
2022/05/20 02:00:05;;;;;;;15.18;9.48;;;14.50;99.90;;;;;;4975036;28;20042;-83
2022/05/20 02:02:44;;;;;;;16.33;13.02;;;14.50;99.90;;;;;;4975332;28;20038;-82
2022/05/20 02:05:19;;;;;;;17.25;9.85;;;14.60;99.90;;;;;;4958993;28;20077;-83
2022/05/20 02:07:49;;;;;;;16.27;12.30;;;14.60;99.90;;;;;;4974761;28;20077;-83
2022/05/20 02:10:31;;;;;;;14.10;11.02;;;14.60;99.90;;;;;;4975421;28;20046;-82
2022/05/20 02:13:01;;;;;;;13.43;7.93;;;14.60;99.90;;;;;;4975355;28;20038;-83
2022/05/20 02:15:33;;;;;;;14.88;12.23;;;14.50;99.90;;;;;;4975110;28;20042;-83
2022/05/20 02:18:03;;;;;;;14.13;9.32;;;14.60;99.90;;;;;;4974599;28;20081;-83
2022/05/20 02:20:41;;;;;;;14.55;12.68;;;14.60;99.90;;;;;;4974966;28;20577;-83
2022/05/20 02:23:12;;;;;;;15.80;9.70;;;14.60;99.90;;;;;;4975003;28;20129;-83
2022/05/20 02:25:44;;;;;;;14.90;11.98;;;14.60;99.90;;;;;;4958908;28;20049;-83
2022/05/20 02:28:17;;;;;;;13.70;8.68;;;14.60;99.90;;;;;;4974632;28;20042;-83
2022/05/20 02:30:44;;;;;;;14.30;12.75;;;14.50;99.90;;;;;;4974875;28;20381;-83
2022/05/20 02:33:14;;;;;;;17.75;11.45;;;14.60;99.90;;;;;;4974686;28;20555;-83
2022/05/20 02:35:40;;;;;;;15.40;12.60;;;14.60;99.90;;;;;;4959001;28;20400;-83
2022/05/20 02:38:16;;;;;;;14.10;12.38;;;14.60;99.90;;;;;;4958498;28;20042;-83
2022/05/20 02:40:44;;;;;;;16.02;10.13;;;14.70;99.90;;;;;;4974850;28;20553;-83
2022/05/20 02:43:10;;;;;;;17.27;14.05;;;14.60;99.90;;;;;;4974775;28;20042;-82
2022/05/20 02:45:37;;;;;;;18.70;11.48;;;14.60;99.90;;;;;;4974674;28;20046;-83
2022/05/20 02:48:03;;;;;;;13.63;11.23;;;14.70;99.90;;;;;;4974190;28;20042;-83
2022/05/20 02:50:29;;;;;;;16.35;9.27;;;14.70;99.90;;;;;;4992339;28;20042;-82
2022/05/20 02:52:54;;;;;;;16.95;12.70;;;14.60;99.90;;;;;;4974725;28;20045;-83
2022/05/20 02:55:20;;;;;;;13.88;11.65;;;14.60;99.90;;;;;;4974678;28;20053;-83
2022/05/20 02:57:45;;;;;;;15.70;11.50;;;14.60;99.90;;;;;;4958198;28;20034;-83
2022/05/20 03:05:40;;;;;;;16.95;11.23;;;14.60;99.90;;;;;;4974479;28;20047;-82
2022/05/20 03:08:06;;;;;;;15.68;11.07;;;14.60;99.90;;;;;;4974139;28;20046;-83
2022/05/20 03:10:32;;;;;;;15.20;10.93;;;14.60;99.90;;;;;;4974488;28;20042;-83
2022/05/20 03:13:02;;;;;;;13.93;11.35;;;14.60;99.90;;;;;;4974319;28;20050;-83
2022/05/20 03:15:28;;;;;;;15.27;12.02;;;14.60;99.90;;;;;;4974593;28;20049;-83
2022/05/20 03:17:54;;;;;;;13.18;8.05;;;14.60;99.90;;;;;;4974114;28;20050;-83
2022/05/20 03:20:21;;;;;;;13.75;10.00;;;14.50;99.90;;;;;;4974631;28;20042;-83
2022/05/20 03:22:46;;;;;;;11.35;7.40;;;14.50;99.90;;;;;;4974514;28;20034;-82
2022/05/20 03:25:12;;;;;;;12.50;8.70;;;14.40;99.90;;;;;;4974580;28;20388;-83
2022/05/20 03:27:37;;;;;;;13.85;7.32;;;14.40;99.90;;;;;;4957746;28;20034;-82
2022/05/20 03:30:05;;;;;;;14.50;9.05;;;14.40;99.90;;;;;;4974442;28;20455;-83
2022/05/20 03:32:31;;;;;;;12.32;6.55;;;14.40;99.90;;;;;;4977266;28;20073;-83
2022/05/20 03:34:59;;;;;;;13.13;7.75;;;14.40;99.90;;;;;;4977918;28;20038;-82
2022/05/20 03:37:25;;;;;;;12.18;8.20;;;14.30;99.90;;;;;;4977758;28;20097;-83
2022/05/20 03:39:51;;;;;;;13.30;6.95;;;14.30;99.90;;;;;;4977818;28;20404;-83
2022/05/20 03:42:17;;;;;;;12.77;8.00;;;14.30;99.90;;;;;;4977796;28;20046;-83
2022/05/20 03:44:42;;;;;;;9.35;5.50;;;14.30;99.90;;;;;;4961629;28;20045;-83
2022/05/20 03:47:08;;;;;;;12.88;9.00;;;14.30;99.90;;;;;;4977723;28;20042;-83
2022/05/20 03:49:33;;;;;;;11.75;7.15;;;14.30;99.90;;;;;;4977450;28;20152;-82
2022/05/20 03:51:59;;;;;;;12.32;8.23;;;14.20;99.90;;;;;;4995028;28;20507;-83
2022/05/20 03:54:29;;;;;;;10.95;6.50;;;14.20;99.90;;;;;;4961306;28;20116;-82
2022/05/20 03:56:54;;;;;;;12.60;8.13;;;14.20;99.90;;;;;;4977780;28;20069;-83
2022/05/20 03:59:20;;;;;;;13.13;6.57;;;14.20;99.90;;;;;;4961113;28;20444;-83
2022/05/20 04:01:57;;;;;;;10.63;6.38;;;14.10;99.90;;;;;;4977700;28;20403;-83
2022/05/20 04:04:36;;;;;;;14.65;9.02;;;14.10;99.90;;;;;;4977356;28;20042;-83
2022/05/20 04:07:05;;;;;;;13.65;8.50;;;14.20;99.90;;;;;;4961029;28;20173;-83
2022/05/20 04:09:30;;;;;;;12.10;8.50;;;14.20;99.90;;;;;;4976964;28;20070;-83
2022/05/20 04:11:59;;;;;;;11.57;6.75;;;14.20;99.90;;;;;;4977492;28;20133;-83
2022/05/20 04:14:27;;;;;;;12.02;8.02;;;14.10;99.90;;;;;;4977539;28;20393;-83
2022/05/20 04:16:57;;;;;;;14.10;9.50;;;14.10;99.90;;;;;;4977228;28;20045;-82
2022/05/20 04:19:27;;;;;;;12.80;6.75;;;14.20;99.90;;;;;;4974015;28;20042;-82
2022/05/20 04:21:56;;;;;;;13.80;7.18;;;14.10;99.90;;;;;;4974348;28;20500;-83
2022/05/20 04:24:22;;;;;;;13.98;9.13;;;14.10;99.90;;;;;;4974049;28;20043;-82
2022/05/20 04:26:48;;;;;;;12.15;8.80;;;14.10;99.90;;;;;;4976013;28;20041;-82
2022/05/20 04:29:13;;;;;;;15.57;9.40;;;14.20;99.90;;;;;;4976397;28;20128;-82
2022/05/20 04:31:44;;;;;;;17.00;6.93;;;14.20;99.90;;;;;;4960820;28;20035;-83
2022/05/20 04:34:10;;;;;;;11.57;7.75;;;14.20;99.90;;;;;;4976818;28;20034;-83
2022/05/20 04:36:35;;;;;;;12.57;6.45;;;14.20;99.90;;;;;;4976663;28;20042;-83
2022/05/20 04:39:02;;;;;;;13.73;8.82;;;14.20;99.90;;;;;;4976646;28;20061;-83
2022/05/20 04:46:58;;;;;;;13.35;8.85;;;14.30;99.90;;;;;;4976592;28;20125;-83
2022/05/20 04:49:25;;;;;;;13.10;6.80;;;14.30;99.90;;;;;;4960048;28;20528;-82
2022/05/20 04:51:50;;;;;;;15.38;8.30;;;14.40;99.90;;;;;;4976665;28;20092;-82
2022/05/20 04:57:00;;;;;;;13.80;8.40;;;14.30;99.90;;;;;;4976319;28;20042;-83
2022/05/20 04:59:26;;;;;;;11.88;7.57;;;14.30;99.90;;;;;;4976123;28;20038;-82
2022/05/20 05:01:52;;;;;;;11.88;8.48;;;14.40;99.90;;;;;;4960297;28;20042;-83
2022/05/20 05:04:19;;;;;;;12.57;8.65;;;14.40;99.90;;;;;;4976461;28;20396;-82
2022/05/20 05:06:45;;;;;;;12.32;8.73;;;14.40;99.90;;;;;;4960253;28;20041;-83
2022/05/20 05:09:10;;;;;;;14.38;7.63;;;14.40;99.90;;;;;;4959599;28;20065;-82
2022/05/20 05:11:39;;;;;;;14.32;8.98;;;14.40;99.90;;;;;;4959904;28;20049;-82
2022/05/20 05:14:07;;;;;;;14.07;9.40;;;14.30;99.90;;;;;;4976013;28;20044;-82
2022/05/20 05:16:33;;;;;;;14.27;8.98;;;14.40;99.90;;;;;;4976264;28;20492;-83
2022/05/20 05:18:59;;;;;;;11.90;8.60;;;14.40;99.90;;;;;;4975536;28;20038;-82
2022/05/20 05:21:25;;;;;;;14.48;8.98;;;14.40;99.90;;;;;;4975962;28;20132;-82
2022/05/20 05:23:51;;;;;;;12.25;6.82;;;14.40;99.90;;;;;;4975990;28;20226;-82
2022/05/20 05:26:16;;;;;;;14.27;9.27;;;14.40;99.90;;;;;;4993013;28;20034;-83
2022/05/20 05:28:42;;;;;;;11.98;7.72;;;14.40;99.90;;;;;;4975438;28;20083;-83
2022/05/20 05:31:07;;;;;;;11.57;8.65;;;14.40;99.90;;;;;;4976105;28;20463;-83
2022/05/20 05:33:33;;;;;;;12.38;7.95;;;14.40;99.90;;;;;;4975768;28;20097;-82
2022/05/20 05:35:58;;;;;;;12.15;6.97;;;14.40;99.90;;;;;;4959603;28;20415;-82
2022/05/20 05:38:24;;;;;;;11.90;8.95;;;14.40;99.90;;;;;;4975278;28;20077;-82
2022/05/20 05:40:50;;;;;;;13.55;8.43;;;14.40;99.90;;;;;;4975586;28;20042;-82
2022/05/20 05:43:16;;;;;;;12.95;8.85;;;14.50;99.90;;;;;;4959504;28;20464;-82
2022/05/20 05:45:41;;;;;;;13.48;9.60;;;14.50;99.90;;;;;;4959682;28;20055;-83
2022/05/20 05:48:09;;;;;;;15.48;9.82;;;14.60;99.90;;;;;;4992267;28;20043;-83
2022/05/20 05:50:38;;;;;;;13.60;9.13;;;14.60;99.90;;;;;;4970511;28;20476;-83
2022/05/20 05:53:11;;;;;;;13.93;9.32;;;14.70;99.90;;;;;;4959213;28;20043;-83
2022/05/20 05:55:37;;;;;;;14.48;9.15;;;14.70;99.90;;;;;;4975333;28;20061;-83
2022/05/20 05:58:03;;;;;;;13.00;7.32;;;14.70;99.90;;;;;;4974933;28;20038;-83
2022/05/20 06:00:28;;;;;;;13.73;9.20;;;14.70;99.90;;;;;;4975386;28;20050;-82
2022/05/20 06:02:54;;;;;;;14.85;9.13;;;14.70;99.90;;;;;;4959094;28;20044;-83
2022/05/20 06:05:20;;;;;;;11.32;7.35;;;14.70;99.90;;;;;;4975368;28;20092;-83
2022/05/20 06:07:46;;;;;;;13.90;8.27;;;14.60;99.90;;;;;;4974875;28;20077;-83
2022/05/20 06:10:12;;;;;;;14.63;7.40;;;14.70;99.90;;;;;;4975415;28;20054;-83
2022/05/20 06:12:38;;;;;;;12.60;8.77;;;14.60;99.90;;;;;;4958958;28;20045;-83
2022/05/20 06:15:09;;;;;;;12.75;9.25;;;14.70;99.90;;;;;;4959217;28;20038;-83
2022/05/20 06:17:35;;;;;;;13.03;6.87;;;14.70;99.90;;;;;;4974827;28;20039;-83
2022/05/20 06:20:03;;;;;;;14.48;8.88;;;14.80;99.90;;;;;;4974961;28;20097;-83
2022/05/20 06:22:29;;;;;;;14.77;7.18;;;14.90;99.90;;;;;;4974814;28;20034;-83
2022/05/20 06:24:54;;;;;;;12.02;6.88;;;15.00;99.90;;;;;;4974969;28;20092;-83
2022/05/20 06:27:20;;;;;;;13.27;8.52;;;15.00;99.90;;;;;;4975098;28;20173;-83
2022/05/20 06:29:49;;;;;;;14.43;8.55;;;15.10;99.90;;;;;;4974677;28;20496;-83
2022/05/20 06:32:15;;;;;;;12.70;7.63;;;15.30;99.90;;;;;;4957608;28;20034;-82
2022/05/20 06:40:13;;;;;;;12.43;9.00;;;15.60;99.90;;;;;;4975002;28;20404;-83
2022/05/20 06:42:40;;;;;;;11.60;8.20;;;15.50;99.90;;;;;;4973811;28;20434;-83
2022/05/20 06:45:06;;;;;;;12.63;7.90;;;15.40;99.90;;;;;;4972237;28;20042;-83
2022/05/20 06:47:32;;;;;;;16.02;10.13;;;15.40;99.90;;;;;;4955524;28;20043;-82
2022/05/20 06:49:57;;;;;;;15.85;10.55;;;15.40;99.90;;;;;;4972138;28;20043;-82
2022/05/20 06:52:23;;;;;;;15.55;11.52;;;15.40;99.90;;;;;;4972302;28;20046;-83
2022/05/20 06:54:48;;;;;;;13.50;10.85;;;15.40;99.90;;;;;;4974543;28;20129;-83
2022/05/20 06:57:22;;;;;;;14.02;9.70;;;15.40;99.90;;;;;;4974737;28;20034;-83
2022/05/20 06:59:47;;;;;;;14.75;10.57;;;15.40;99.90;;;;;;4958101;28;20042;-83
2022/05/20 07:02:13;;;;;;;13.57;9.80;;;15.50;99.90;;;;;;4974602;28;20181;-83
2022/05/20 07:04:39;;;;;;;13.32;8.10;;;15.50;99.90;;;;;;4974524;28;20093;-83
2022/05/20 07:07:05;;;;;;;15.25;8.93;;;15.50;99.90;;;;;;4977170;28;20156;-83
2022/05/20 07:09:31;;;;;;;14.15;10.15;;;15.50;99.90;;;;;;4961915;28;20555;-83
2022/05/20 07:11:57;;;;;;;13.55;11.27;;;15.60;99.90;;;;;;4978374;28;20436;-83
2022/05/20 07:14:23;;;;;;;14.82;11.15;;;15.70;99.90;;;;;;4978551;28;20037;-83
2022/05/20 07:16:49;;;;;;;14.68;11.63;;;15.70;99.90;;;;;;4978262;28;20416;-83
2022/05/20 07:19:15;;;;;;;14.63;10.00;;;15.80;99.90;;;;;;4977633;28;20096;-82
2022/05/20 07:21:40;;;;;;;13.23;11.73;;;15.80;99.90;;;;;;4978588;28;20042;-83
2022/05/20 07:24:07;;;;;;;13.85;10.00;;;15.90;99.90;;;;;;4961681;28;20523;-84
2022/05/20 07:26:33;;;;;;;14.15;9.82;;;16.00;99.90;;;;;;4962046;28;20038;-83
2022/05/20 07:28:59;;;;;;;15.98;10.88;;;16.00;99.90;;;;;;4977472;28;20044;-83
2022/05/20 07:31:24;;;;;;;13.70;11.63;;;16.10;99.90;;;;;;4994182;28;20038;-83
2022/05/20 07:33:51;;;;;;;13.70;11.10;;;16.20;99.90;;;;;;5010435;28;20035;-83
2022/05/20 07:36:17;;;;;;;16.05;12.60;;;16.30;99.90;;;;;;4977924;28;20042;-83
2022/05/20 07:38:43;;;;;;;14.55;11.93;;;16.30;99.90;;;;;;5010334;28;20065;-83
2022/05/20 07:41:09;;;;;;;14.93;11.02;;;16.30;99.90;;;;;;4977780;28;20038;-83
2022/05/20 07:43:35;;;;;;;15.60;10.40;;;16.30;99.90;;;;;;4977639;28;20046;-83
2022/05/20 07:46:01;;;;;;;18.08;12.07;;;16.20;99.90;;;;;;4961657;28;20053;-83
2022/05/20 07:48:27;;;;;;;16.45;13.23;;;16.30;99.90;;;;;;4977261;28;20042;-83
2022/05/20 07:51:07;;;;;;;14.57;12.20;;;16.30;99.90;;;;;;4977947;28;20049;-83
2022/05/20 07:53:39;;;;;;;14.13;11.32;;;16.20;99.90;;;;;;4977639;28;20129;-83
2022/05/20 07:56:11;;;;;;;14.90;11.18;;;16.20;99.90;;;;;;4977748;28;20042;-83
2022/05/20 07:58:38;;;;;;;;;;;16.30;99.90;;;;;;4977664;28;20042;-83
2022/05/20 08:01:04;;;;;;;13.20;10.90;;;16.20;99.90;;;;;;4977717;28;19917;-83
2022/05/20 08:06:18;;;;;;;15.18;10.98;;;16.40;99.90;;;;;;4977428;28;20137;-83
2022/05/20 08:08:44;;;;;;;13.38;11.63;;;16.40;99.90;;;;;;4976818;28;20563;-83
2022/05/20 08:11:10;;;;;;;12.40;9.80;;;16.50;99.90;;;;;;4977175;28;20042;-83
2022/05/20 08:13:35;;;;;;;13.40;12.00;;;16.50;99.90;;;;;;4977263;28;20042;-83
2022/05/20 08:16:01;;;;;;;15.73;12.05;;;16.50;99.90;;;;;;4961214;28;20607;-83
2022/05/20 08:18:27;;;;;;;13.82;12.13;;;16.60;99.90;;;;;;4976490;28;20042;-83
2022/05/20 08:20:52;;;;;;;14.65;11.90;;;16.60;99.90;;;;;;4977222;28;20459;-83
2022/05/20 08:23:18;;;;;;;15.20;13.00;;;16.70;99.90;;;;;;4976896;28;20045;-83
2022/05/20 08:25:44;;;;;;;14.68;10.98;;;16.90;99.90;;;;;;4977020;28;20393;-84
2022/05/20 08:28:10;;;;;;;13.35;10.98;;;17.00;99.90;;;;;;4976573;28;20043;-84
2022/05/20 08:30:36;;;;;;;13.88;11.63;;;17.10;99.90;;;;;;4976928;28;20404;-83
2022/05/20 08:33:01;;;;;;;13.10;11.30;;;17.30;99.90;;;;;;4976811;28;20128;-84
2022/05/20 08:35:27;;;;;;;13.88;11.32;;;17.30;99.90;;;;;;4977102;28;20042;-84
2022/05/20 08:37:54;;;;;;;13.00;10.57;;;17.40;99.90;;;;;;4976386;28;20042;-84
2022/05/20 08:40:22;;;;;;;15.38;10.93;;;17.40;99.90;;;;;;4976805;28;20058;-84
2022/05/20 08:42:50;;;;;;;13.43;9.68;;;17.50;99.90;;;;;;4960836;28;20404;-84
2022/05/20 08:45:19;;;;;;;12.68;9.80;;;17.50;99.90;;;;;;4960839;28;20046;-84
2022/05/20 08:47:47;;;;;;;15.10;11.80;;;17.70;99.90;;;;;;4959357;28;20054;-84
2022/05/20 08:50:18;;;;;;;14.02;11.88;;;17.70;99.90;;;;;;4976159;28;20100;-84
2022/05/20 08:52:44;;;;;;;13.88;10.23;;;17.70;99.90;;;;;;5000567;28;20038;-84
2022/05/20 08:55:10;;;;;;;13.13;10.80;;;17.70;99.90;;;;;;4976309;28;20499;-84
2022/05/20 08:57:37;;;;;;;12.70;10.27;;;17.70;99.90;;;;;;4976147;28;20046;-84
2022/05/20 09:00:09;;;;;;;11.82;10.48;;;17.80;99.90;;;;;;4992564;28;20039;-84
2022/05/20 09:02:35;;;;;;;15.10;11.37;;;17.90;99.90;;;;;;4992630;28;20046;-84
2022/05/20 09:05:15;;;;;;;15.05;11.05;;;18.00;99.90;;;;;;4992246;28;20513;-84
2022/05/20 09:08:07;;;;;;;13.73;11.00;;;18.10;99.90;;;;;;5008489;28;20046;-84
2022/05/20 09:10:43;;;;;;;13.82;11.02;;;18.10;99.90;;;;;;4976163;28;20105;-84
2022/05/20 09:16:17;;;;;;;13.50;10.77;;;18.10;99.90;;;;;;5008745;28;20053;-84
2022/05/20 09:18:45;;;;;;;12.65;11.18;;;18.20;99.90;;;;;;4991813;28;20516;-84
2022/05/20 09:21:39;;;;;;;11.35;10.15;;;18.20;99.90;;;;;;4992476;28;20089;-84
2022/05/20 09:24:18;;;;;;;14.45;10.18;;;18.40;99.90;;;;;;4976167;28;20042;-84
2022/05/20 09:26:47;;;;;;;12.15;10.40;;;18.40;99.90;;;;;;4975303;28;20038;-84
2022/05/20 09:29:41;;;;;;;13.18;10.27;;;18.50;99.90;;;;;;4955743;28;20065;-84
2022/05/20 09:32:20;;;;;;;12.50;9.30;;;18.60;99.90;;;;;;4971405;28;20039;-84
2022/05/20 09:34:45;;;;;;;11.57;9.25;;;18.70;99.90;;;;;;4956408;28;20034;-84
2022/05/20 09:37:11;;;;;;;11.95;9.15;;;18.90;99.90;;;;;;4956295;28;20097;-84
2022/05/20 09:39:41;;;;;;;10.38;8.20;;;19.00;99.90;;;;;;4956103;28;20038;-84
2022/05/20 09:42:18;;;;;;;10.68;8.07;;;19.00;99.90;;;;;;4956313;28;20050;-84
2022/05/20 09:44:53;;;;;;;10.68;6.60;;;19.10;99.00;;;;;;4940582;28;20069;-84
2022/05/20 09:47:31;;;;;;;8.68;5.72;;;19.10;96.70;;;;;;4956358;28;20402;-83
2022/05/20 09:49:56;;;;;;;9.68;6.40;;;19.10;95.90;;;;;;4940447;28;20382;-83
2022/05/20 09:52:25;;;;;;;9.88;6.93;;;19.20;95.50;;;;;;4956190;28;20046;-84
2022/05/20 09:55:22;;;;;;;9.30;5.72;;;19.20;94.50;;;;;;4955982;28;20054;-84
2022/05/20 09:57:48;;;;;;;10.35;6.68;;;19.30;91.90;;;;;;4954485;28;20058;-83
2022/05/20 10:00:32;;;;;;;8.02;5.28;;;19.30;93.90;;;;;;4940160;28;20042;-84
2022/05/20 10:03:03;;;;;;;11.40;6.60;;;19.40;93.20;;;;;;4956207;28;20089;-84
2022/05/20 10:05:35;;;;;;;11.00;7.03;;;19.50;93.30;;;;;;4965822;28;20046;-84
2022/05/20 10:08:18;;;;;;;10.18;6.38;;;19.50;91.30;;;;;;4974965;28;20500;-83
2022/05/20 10:11:09;;;;;;;9.57;6.28;;;19.60;91.80;;;;;;4974836;28;20053;-84
2022/05/20 10:13:59;;;;;;;11.00;6.85;;;19.70;93.90;;;;;;4973898;28;20043;-84
2022/05/20 10:16:35;;;;;;;9.07;6.57;;;19.70;93.50;;;;;;4971749;28;20034;-84
2022/05/20 10:19:18;;;;;;;9.60;7.07;;;19.70;93.90;;;;;;4973460;28;20045;-84
2022/05/20 10:21:50;;;;;;;;;;;19.80;94.70;;;;;;4975523;28;20100;-84
2022/05/20 10:24:34;;;;;;;10.35;7.22;;;19.80;96.00;;;;;;4975253;28;19922;-84
2022/05/20 10:27:02;;;;;;;11.23;8.40;;;19.90;95.80;;;;;;4974954;28;20440;-84
2022/05/20 10:32:36;;;;;;;9.80;6.93;;;20.20;97.40;;;;;;4974659;28;20496;-84
2022/05/20 10:35:06;;;;;;;10.60;7.65;;;20.30;96.80;;;;;;4974913;28;20047;-84
2022/05/20 10:38:04;;;;;;;9.38;6.93;;;20.40;96.30;;;;;;4974794;28;20130;-84
2022/05/20 10:40:50;;;;;;;10.85;6.75;;;20.50;95.60;;;;;;4976398;28;20496;-84
2022/05/20 10:50:18;;;;;;;11.60;7.72;;;20.60;94.30;;;;;;4959296;28;20047;-84
2022/05/20 10:53:02;;;;;;;10.02;6.05;;;20.60;92.90;;;;;;4943545;28;20078;-84
2022/05/20 10:55:52;;;;;;;9.02;6.10;;;20.60;92.40;;;;;;4959171;28;20102;-84
2022/05/20 10:58:35;;;;;;;8.77;5.15;;;20.70;87.50;;;;;;4958863;28;20177;-84
2022/05/20 11:01:25;;;;;;;9.32;5.47;;;20.80;90.30;;;;;;4959582;28;20042;-84
2022/05/20 11:04:00;;;;;;;8.48;5.72;;;20.90;91.60;;;;;;4958571;28;20059;-84
2022/05/20 11:06:32;;;;;;;8.38;5.38;;;21.00;87.20;;;;;;4943223;28;20046;-84
2022/05/20 11:09:17;;;;;;;10.02;6.65;;;21.00;85.90;;;;;;4973733;28;20049;-84
2022/05/20 11:12:00;;;;;;;8.75;6.35;;;21.00;85.20;;;;;;4978006;28;20126;-84
2022/05/20 11:15:03;;;;;;;9.27;5.78;;;21.10;89.30;;;;;;4961670;28;20488;-84
2022/05/20 11:17:49;;;;;;;;;;;21.10;86.80;;;;;;4991893;28;20435;-84
2022/05/20 11:20:34;;;;;;;7.90;3.60;;;21.10;86.70;;;;;;4976156;28;19918;-84
2022/05/20 11:23:32;;;;;;;6.78;3.22;;;21.20;89.20;;;;;;4962135;28;20042;-84
2022/05/20 11:26:23;;;;;;;7.57;3.33;;;21.40;73.80;;;;;;4962009;28;20129;-84
2022/05/20 11:29:16;;;;;;;7.95;4.32;;;21.50;74.50;;;;;;4958947;28;20046;-84
2022/05/20 11:32:00;;;;;;;7.85;4.20;;;21.60;75.20;;;;;;4975115;28;20503;-84
2022/05/20 11:34:41;;;;;;;8.27;4.20;;;21.70;71.50;;;;;;4975278;28;20064;-84
2022/05/20 11:37:30;;;;;;;8.82;4.07;;;21.70;73.40;;;;;;4958729;28;20050;-84
2022/05/20 11:40:20;;;;;;;8.32;3.90;;;21.70;75.10;;;;;;4935874;28;20220;-84
2022/05/20 11:43:18;;;;;;;9.02;4.20;;;21.80;71.30;;;;;;4975023;28;20038;-84
2022/05/20 11:46:20;;;;;;;9.52;5.82;;;21.90;74.60;;;;;;4974244;28;20050;-84
2022/05/20 11:49:14;;;;;;;8.18;4.55;;;22.10;75.50;;;;;;4960293;28;20050;-84
2022/05/20 11:51:49;;;;;;;8.77;4.28;;;22.20;75.40;;;;;;4976797;28;20035;-84
2022/05/20 11:54:43;;;;;;;10.20;5.65;;;22.40;74.80;;;;;;4977676;28;20046;-84
2022/05/20 11:57:29;;;;;;;11.25;5.78;;;22.50;78.00;;;;;;4977716;28;20385;-84
2022/05/20 11:59:57;;;;;;;11.50;5.22;;;22.60;74.50;;;;;;4977139;28;20393;-84
2022/05/20 12:02:26;;;;;;;9.85;4.97;;;22.60;71.20;;;;;;4961266;28;20129;-84
2022/05/20 12:04:52;;;;;;;10.88;6.25;;;22.60;65.90;;;;;;4977570;28;20037;-84
2022/05/20 12:07:21;;;;;;;11.68;7.00;;;22.70;67.70;;;;;;4977642;28;20061;-84
2022/05/20 12:09:50;;;;;;;10.55;6.80;;;22.70;68.40;;;;;;4977166;28;20054;-84
2022/05/20 12:12:31;;;;;;;11.07;7.38;;;22.80;69.60;;;;;;4961357;28;20042;-84
2022/05/20 12:14:59;;;;;;;10.85;7.70;;;22.80;69.00;;;;;;4960851;28;20507;-84
2022/05/20 12:17:46;;;;;;;10.98;7.00;;;22.70;67.30;;;;;;4960936;28;20569;-84
2022/05/20 12:26:24;;;;;;;9.77;5.50;;;22.80;67.60;;;;;;4976979;28;20109;-84
2022/05/20 12:28:50;;;;;;;10.98;5.70;;;22.80;68.40;;;;;;4976631;28;20129;-85
2022/05/20 12:31:38;;;;;;;8.85;5.22;;;22.80;67.00;;;;;;4976710;28;20045;-84
2022/05/20 12:34:10;;;;;;;9.68;5.93;;;22.80;68.90;;;;;;4960934;28;20112;-84
2022/05/20 12:36:41;;;;;;;11.27;6.95;;;22.80;70.70;;;;;;4960754;28;20039;-85
2022/05/20 12:39:06;;;;;;;10.07;7.38;;;22.80;70.80;;;;;;4976527;28;20504;-84
2022/05/20 12:41:48;;;;;;;10.30;6.38;;;22.80;72.10;;;;;;4976641;28;20132;-84
2022/05/20 12:44:20;;;;;;;9.48;5.65;;;22.80;69.20;;;;;;4976994;28;20562;-85
2022/05/20 12:47:16;;;;;;;11.13;5.83;;;22.80;70.40;;;;;;4976916;28;20416;-85
2022/05/20 12:49:47;;;;;;;10.90;6.25;;;22.80;70.60;;;;;;4976176;28;20055;-84
2022/05/20 12:52:18;;;;;;;10.18;7.07;;;22.70;73.10;;;;;;4976784;28;20041;-84
2022/05/20 12:54:51;;;;;;;8.60;5.90;;;22.60;70.50;;;;;;4976798;28;20121;-84
2022/05/20 12:57:24;;;;;;;10.85;6.03;;;22.60;71.00;;;;;;4976714;28;20046;-84
2022/05/20 13:00:00;;;;;;;9.77;5.63;;;22.40;68.10;;;;;;4976189;28;20038;-85
2022/05/20 13:02:39;;;;;;;7.95;5.20;;;22.30;70.60;;;;;;4976324;28;20077;-84
2022/05/20 13:05:28;;;;;;;10.52;6.13;;;22.20;68.10;;;;;;4975385;28;20500;-84
2022/05/20 13:07:55;;;;;;;9.93;6.45;;;22.10;68.70;;;;;;4976196;28;20065;-84
2022/05/20 13:10:35;;;;;;;12.73;7.90;;;22.10;71.90;;;;;;4976246;28;20052;-84
2022/05/20 13:13:10;;;;;;;11.70;9.32;;;22.00;73.20;;;;;;4976018;28;20053;-84
2022/05/20 13:15:58;;;;;;;12.38;9.30;;;22.00;73.90;;;;;;4976191;28;20073;-84
2022/05/20 13:18:31;;;;;;;12.25;9.88;;;21.90;75.80;;;;;;4975672;28;20072;-84
2022/05/20 13:21:00;;;;;;;12.50;9.48;;;21.80;77.00;;;;;;4976439;28;20050;-84
2022/05/20 13:23:29;;;;;;;12.88;9.50;;;21.80;79.40;;;;;;4959816;28;20447;-83
2022/05/20 13:25:54;;;;;;;12.50;9.57;;;21.70;80.00;;;;;;4975854;28;20042;-84
2022/05/20 13:28:46;;;;;;;12.00;9.07;;;21.70;83.20;;;;;;4959472;28;20069;-83
2022/05/20 13:31:18;;;;;;;11.27;9.07;;;21.60;86.00;;;;;;4972468;28;20064;-83
2022/05/20 13:33:44;;;;;;;11.35;8.32;;;21.50;81.80;;;;;;4975700;28;20041;-84
2022/05/20 13:36:17;;;;;;;12.80;9.38;;;21.50;85.10;;;;;;4975954;28;20030;-84
2022/05/20 13:39:05;;;;;;;13.40;9.90;;;21.50;87.90;;;;;;4975503;28;20080;-84